sensor_id;sensor_type;location;lat;lon;timestamp;P1;durP1;ratioP1;P2;durP2;ratioP2
19905;SDS011;10115;50.906;4.438;2023-08-07T00:00:33;8.47;;;5.03;;
19905;SDS011;10115;50.906;4.438;2023-08-07T00:02:58;5.03;;;4.63;;
19905;SDS011;10115;50.906;4.438;2023-08-07T00:05:24;6.47;;;5.80;;
19905;SDS011;10115;50.906;4.438;2023-08-07T00:07:50;5.97;;;5.37;;
19905;SDS011;10115;50.906;4.438;2023-08-07T00:10:15;5.07;;;4.67;;
19905;SDS011;10115;50.906;4.438;2023-08-07T00:12:41;7.07;;;5.50;;
19905;SDS011;10115;50.906;4.438;2023-08-07T00:15:08;5.93;;;5.33;;
19905;SDS011;10115;50.906;4.438;2023-08-07T00:17:34;5.70;;;5.20;;
19905;SDS011;10115;50.906;4.438;2023-08-07T00:19:59;4.80;;;4.50;;
19905;SDS011;10115;50.906;4.438;2023-08-07T00:22:25;7.47;;;4.63;;
19905;SDS011;10115;50.906;4.438;2023-08-07T00:24:51;7.30;;;5.30;;
19905;SDS011;10115;50.906;4.438;2023-08-07T00:27:16;5.63;;;5.20;;
19905;SDS011;10115;50.906;4.438;2023-08-07T00:29:42;6.57;;;5.43;;
19905;SDS011;10115;50.906;4.438;2023-08-07T00:32:08;5.33;;;4.93;;
19905;SDS011;10115;50.906;4.438;2023-08-07T00:34:33;6.53;;;5.83;;
19905;SDS011;10115;50.906;4.438;2023-08-07T00:36:59;20.77;;;5.43;;
19905;SDS011;10115;50.906;4.438;2023-08-07T00:39:25;7.07;;;5.77;;
19905;SDS011;10115;50.906;4.438;2023-08-07T00:41:51;6.17;;;5.60;;
19905;SDS011;10115;50.906;4.438;2023-08-07T00:44:17;4.87;;;4.57;;
19905;SDS011;10115;50.906;4.438;2023-08-07T00:46:43;5.47;;;4.97;;
19905;SDS011;10115;50.906;4.438;2023-08-07T00:49:09;4.97;;;4.60;;
19905;SDS011;10115;50.906;4.438;2023-08-07T00:51:37;5.10;;;4.80;;
19905;SDS011;10115;50.906;4.438;2023-08-07T00:54:04;9.97;;;5.57;;
19905;SDS011;10115;50.906;4.438;2023-08-07T00:56:32;5.23;;;4.80;;
19905;SDS011;10115;50.906;4.438;2023-08-07T00:58:59;4.47;;;4.27;;
19905;SDS011;10115;50.906;4.438;2023-08-07T01:01:25;6.07;;;5.53;;
19905;SDS011;10115;50.906;4.438;2023-08-07T01:03:52;5.30;;;5.00;;
19905;SDS011;10115;50.906;4.438;2023-08-07T01:06:17;5.53;;;5.07;;
19905;SDS011;10115;50.906;4.438;2023-08-07T01:08:43;6.40;;;5.10;;
19905;SDS011;10115;50.906;4.438;2023-08-07T01:11:14;5.47;;;5.07;;
19905;SDS011;10115;50.906;4.438;2023-08-07T01:13:57;5.37;;;4.97;;
19905;SDS011;10115;50.906;4.438;2023-08-07T01:19:27;5.40;;;5.20;;
19905;SDS011;10115;50.906;4.438;2023-08-07T01:22:06;8.43;;;5.03;;
19905;SDS011;10115;50.906;4.438;2023-08-07T01:24:43;7.00;;;6.30;;
19905;SDS011;10115;50.906;4.438;2023-08-07T01:35:05;5.03;;;4.73;;
19905;SDS011;10115;50.906;4.438;2023-08-07T01:37:33;5.30;;;4.83;;
19905;SDS011;10115;50.906;4.438;2023-08-07T01:40:01;5.17;;;4.70;;
19905;SDS011;10115;50.906;4.438;2023-08-07T01:42:29;5.63;;;5.33;;
19905;SDS011;10115;50.906;4.438;2023-08-07T01:44:55;5.43;;;5.03;;
19905;SDS011;10115;50.906;4.438;2023-08-07T01:47:20;5.10;;;4.70;;
19905;SDS011;10115;50.906;4.438;2023-08-07T01:49:46;5.77;;;5.30;;
19905;SDS011;10115;50.906;4.438;2023-08-07T01:52:12;8.00;;;5.03;;
19905;SDS011;10115;50.906;4.438;2023-08-07T01:54:38;5.30;;;4.83;;
19905;SDS011;10115;50.906;4.438;2023-08-07T01:57:04;5.70;;;5.20;;
19905;SDS011;10115;50.906;4.438;2023-08-07T01:59:29;5.37;;;4.97;;
19905;SDS011;10115;50.906;4.438;2023-08-07T02:01:55;5.43;;;5.13;;
19905;SDS011;10115;50.906;4.438;2023-08-07T02:04:21;5.17;;;4.87;;
19905;SDS011;10115;50.906;4.438;2023-08-07T02:06:46;4.80;;;4.60;;
19905;SDS011;10115;50.906;4.438;2023-08-07T02:09:12;5.27;;;4.87;;
19905;SDS011;10115;50.906;4.438;2023-08-07T02:11:38;5.10;;;4.80;;
19905;SDS011;10115;50.906;4.438;2023-08-07T02:14:03;5.20;;;4.90;;
19905;SDS011;10115;50.906;4.438;2023-08-07T02:16:29;5.57;;;5.17;;
19905;SDS011;10115;50.906;4.438;2023-08-07T02:18:55;4.87;;;4.67;;
19905;SDS011;10115;50.906;4.438;2023-08-07T02:21:20;5.13;;;4.83;;
19905;SDS011;10115;50.906;4.438;2023-08-07T02:23:46;7.30;;;5.43;;
19905;SDS011;10115;50.906;4.438;2023-08-07T02:26:11;5.60;;;5.10;;
19905;SDS011;10115;50.906;4.438;2023-08-07T02:28:37;6.33;;;5.73;;
19905;SDS011;10115;50.906;4.438;2023-08-07T02:31:03;5.50;;;5.20;;
19905;SDS011;10115;50.906;4.438;2023-08-07T02:33:28;4.93;;;4.63;;
19905;SDS011;10115;50.906;4.438;2023-08-07T02:35:57;9.13;;;5.30;;
19905;SDS011;10115;50.906;4.438;2023-08-07T02:38:24;5.77;;;5.43;;
19905;SDS011;10115;50.906;4.438;2023-08-07T02:40:50;8.27;;;5.53;;
19905;SDS011;10115;50.906;4.438;2023-08-07T02:43:16;6.60;;;5.13;;
19905;SDS011;10115;50.906;4.438;2023-08-07T02:45:42;5.30;;;5.00;;
19905;SDS011;10115;50.906;4.438;2023-08-07T02:48:07;7.50;;;5.43;;
19905;SDS011;10115;50.906;4.438;2023-08-07T02:50:33;5.23;;;5.03;;
19905;SDS011;10115;50.906;4.438;2023-08-07T02:52:59;6.10;;;5.63;;
19905;SDS011;10115;50.906;4.438;2023-08-07T02:55:25;4.90;;;4.70;;
19905;SDS011;10115;50.906;4.438;2023-08-07T02:57:51;5.53;;;5.23;;
19905;SDS011;10115;50.906;4.438;2023-08-07T03:00:17;5.33;;;5.03;;
19905;SDS011;10115;50.906;4.438;2023-08-07T03:02:42;8.27;;;6.03;;
19905;SDS011;10115;50.906;4.438;2023-08-07T03:05:08;5.33;;;5.00;;
19905;SDS011;10115;50.906;4.438;2023-08-07T03:07:34;5.13;;;4.83;;
19905;SDS011;10115;50.906;4.438;2023-08-07T03:10:00;4.77;;;4.57;;
19905;SDS011;10115;50.906;4.438;2023-08-07T03:12:25;5.40;;;5.10;;
19905;SDS011;10115;50.906;4.438;2023-08-07T03:14:51;6.33;;;5.10;;
19905;SDS011;10115;50.906;4.438;2023-08-07T03:17:17;5.67;;;5.27;;
19905;SDS011;10115;50.906;4.438;2023-08-07T03:19:43;5.53;;;5.23;;
19905;SDS011;10115;50.906;4.438;2023-08-07T03:22:09;4.77;;;4.57;;
19905;SDS011;10115;50.906;4.438;2023-08-07T03:24:34;6.37;;;5.37;;
19905;SDS011;10115;50.906;4.438;2023-08-07T03:27:00;5.53;;;5.13;;
19905;SDS011;10115;50.906;4.438;2023-08-07T03:29:26;5.17;;;4.97;;
19905;SDS011;10115;50.906;4.438;2023-08-07T03:31:52;5.47;;;5.17;;
19905;SDS011;10115;50.906;4.438;2023-08-07T03:34:17;5.43;;;4.90;;
19905;SDS011;10115;50.906;4.438;2023-08-07T03:36:44;5.40;;;4.90;;
19905;SDS011;10115;50.906;4.438;2023-08-07T03:39:10;5.20;;;4.80;;
19905;SDS011;10115;50.906;4.438;2023-08-07T03:41:37;9.30;;;5.60;;
19905;SDS011;10115;50.906;4.438;2023-08-07T03:44:03;5.50;;;5.10;;
19905;SDS011;10115;50.906;4.438;2023-08-07T03:46:28;5.10;;;4.80;;
19905;SDS011;10115;50.906;4.438;2023-08-07T03:48:54;6.33;;;5.70;;
19905;SDS011;10115;50.906;4.438;2023-08-07T03:51:20;7.07;;;4.97;;
19905;SDS011;10115;50.906;4.438;2023-08-07T03:53:46;10.20;;;5.83;;
19905;SDS011;10115;50.906;4.438;2023-08-07T03:56:11;5.97;;;5.50;;
19905;SDS011;10115;50.906;4.438;2023-08-07T03:58:37;5.63;;;5.23;;
19905;SDS011;10115;50.906;4.438;2023-08-07T04:01:03;4.97;;;4.70;;
19905;SDS011;10115;50.906;4.438;2023-08-07T04:03:28;5.57;;;5.17;;
19905;SDS011;10115;50.906;4.438;2023-08-07T04:05:54;6.20;;;5.80;;
19905;SDS011;10115;50.906;4.438;2023-08-07T04:08:20;5.83;;;5.40;;
19905;SDS011;10115;50.906;4.438;2023-08-07T04:10:59;5.70;;;5.30;;
19905;SDS011;10115;50.906;4.438;2023-08-07T04:13:26;5.20;;;4.87;;
19905;SDS011;10115;50.906;4.438;2023-08-07T04:15:52;5.13;;;4.87;;
19905;SDS011;10115;50.906;4.438;2023-08-07T04:18:18;6.13;;;5.27;;
19905;SDS011;10115;50.906;4.438;2023-08-07T04:20:53;5.90;;;5.60;;
19905;SDS011;10115;50.906;4.438;2023-08-07T04:23:20;4.93;;;4.63;;
19905;SDS011;10115;50.906;4.438;2023-08-07T04:25:47;9.93;;;5.33;;
19905;SDS011;10115;50.906;4.438;2023-08-07T04:28:13;6.90;;;5.27;;
19905;SDS011;10115;50.906;4.438;2023-08-07T04:30:39;6.13;;;5.27;;
19905;SDS011;10115;50.906;4.438;2023-08-07T04:33:05;5.77;;;5.47;;
19905;SDS011;10115;50.906;4.438;2023-08-07T04:35:31;5.87;;;5.47;;
19905;SDS011;10115;50.906;4.438;2023-08-07T04:37:56;5.53;;;5.10;;
19905;SDS011;10115;50.906;4.438;2023-08-07T04:40:22;6.00;;;5.70;;
19905;SDS011;10115;50.906;4.438;2023-08-07T04:42:51;6.13;;;5.50;;
19905;SDS011;10115;50.906;4.438;2023-08-07T04:45:17;5.37;;;4.97;;
19905;SDS011;10115;50.906;4.438;2023-08-07T04:47:42;5.57;;;5.07;;
19905;SDS011;10115;50.906;4.438;2023-08-07T04:50:08;5.27;;;4.53;;
19905;SDS011;10115;50.906;4.438;2023-08-07T04:52:34;6.67;;;4.60;;
19905;SDS011;10115;50.906;4.438;2023-08-07T04:55:00;5.87;;;5.37;;
19905;SDS011;10115;50.906;4.438;2023-08-07T04:57:26;5.23;;;4.87;;
19905;SDS011;10115;50.906;4.438;2023-08-07T04:59:52;5.37;;;4.90;;
19905;SDS011;10115;50.906;4.438;2023-08-07T05:02:18;5.63;;;5.27;;
19905;SDS011;10115;50.906;4.438;2023-08-07T05:04:44;5.10;;;4.80;;
19905;SDS011;10115;50.906;4.438;2023-08-07T05:07:10;5.00;;;4.80;;
19905;SDS011;10115;50.906;4.438;2023-08-07T05:09:37;4.67;;;4.47;;
19905;SDS011;10115;50.906;4.438;2023-08-07T05:12:03;5.40;;;4.90;;
19905;SDS011;10115;50.906;4.438;2023-08-07T05:14:30;5.60;;;5.10;;
19905;SDS011;10115;50.906;4.438;2023-08-07T05:16:56;5.00;;;4.70;;
19905;SDS011;10115;50.906;4.438;2023-08-07T05:19:21;4.87;;;4.60;;
19905;SDS011;10115;50.906;4.438;2023-08-07T05:21:48;5.17;;;4.80;;
19905;SDS011;10115;50.906;4.438;2023-08-07T05:24:16;11.60;;;5.73;;
19905;SDS011;10115;50.906;4.438;2023-08-07T05:26:42;9.97;;;4.87;;
19905;SDS011;10115;50.906;4.438;2023-08-07T05:29:07;4.30;;;4.10;;
19905;SDS011;10115;50.906;4.438;2023-08-07T05:31:33;5.07;;;4.80;;
19905;SDS011;10115;50.906;4.438;2023-08-07T05:33:59;5.50;;;5.00;;
19905;SDS011;10115;50.906;4.438;2023-08-07T05:36:25;6.80;;;6.10;;
19905;SDS011;10115;50.906;4.438;2023-08-07T05:38:51;5.93;;;5.30;;
19905;SDS011;10115;50.906;4.438;2023-08-07T05:41:16;4.53;;;4.33;;
19905;SDS011;10115;50.906;4.438;2023-08-07T05:43:42;7.33;;;5.53;;
19905;SDS011;10115;50.906;4.438;2023-08-07T05:46:08;5.37;;;5.07;;
19905;SDS011;10115;50.906;4.438;2023-08-07T05:48:34;5.97;;;5.47;;
19905;SDS011;10115;50.906;4.438;2023-08-07T05:51:00;4.67;;;4.47;;
19905;SDS011;10115;50.906;4.438;2023-08-07T05:53:26;9.03;;;4.57;;
19905;SDS011;10115;50.906;4.438;2023-08-07T05:55:52;4.30;;;4.10;;
19905;SDS011;10115;50.906;4.438;2023-08-07T05:58:18;4.83;;;4.63;;
19905;SDS011;10115;50.906;4.438;2023-08-07T06:00:44;4.87;;;4.50;;
19905;SDS011;10115;50.906;4.438;2023-08-07T06:03:09;4.67;;;4.37;;
19905;SDS011;10115;50.906;4.438;2023-08-07T06:05:35;9.20;;;4.50;;
19905;SDS011;10115;50.906;4.438;2023-08-07T06:08:01;4.40;;;4.20;;
19905;SDS011;10115;50.906;4.438;2023-08-07T06:10:26;3.90;;;3.70;;
19905;SDS011;10115;50.906;4.438;2023-08-07T06:12:52;4.57;;;4.27;;
19905;SDS011;10115;50.906;4.438;2023-08-07T06:15:18;4.43;;;4.20;;
19905;SDS011;10115;50.906;4.438;2023-08-07T06:17:44;4.53;;;4.23;;
19905;SDS011;10115;50.906;4.438;2023-08-07T06:20:10;5.20;;;4.67;;
19905;SDS011;10115;50.906;4.438;2023-08-07T06:22:37;4.47;;;4.17;;
19905;SDS011;10115;50.906;4.438;2023-08-07T06:25:03;4.87;;;4.63;;
19905;SDS011;10115;50.906;4.438;2023-08-07T06:27:30;4.60;;;4.40;;
19905;SDS011;10115;50.906;4.438;2023-08-07T06:29:56;5.10;;;4.80;;
19905;SDS011;10115;50.906;4.438;2023-08-07T06:32:22;4.90;;;4.60;;
19905;SDS011;10115;50.906;4.438;2023-08-07T06:34:49;5.83;;;5.43;;
19905;SDS011;10115;50.906;4.438;2023-08-07T06:37:15;5.47;;;5.03;;
19905;SDS011;10115;50.906;4.438;2023-08-07T06:39:40;5.17;;;4.70;;
19905;SDS011;10115;50.906;4.438;2023-08-07T06:42:06;5.47;;;5.07;;
19905;SDS011;10115;50.906;4.438;2023-08-07T06:44:32;4.47;;;4.27;;
19905;SDS011;10115;50.906;4.438;2023-08-07T06:46:58;5.00;;;4.70;;
19905;SDS011;10115;50.906;4.438;2023-08-07T06:49:23;5.10;;;4.80;;
19905;SDS011;10115;50.906;4.438;2023-08-07T06:51:49;6.43;;;5.00;;
19905;SDS011;10115;50.906;4.438;2023-08-07T06:54:14;4.97;;;4.57;;
19905;SDS011;10115;50.906;4.438;2023-08-07T06:56:40;4.80;;;4.50;;
19905;SDS011;10115;50.906;4.438;2023-08-07T06:59:07;8.17;;;4.77;;
19905;SDS011;10115;50.906;4.438;2023-08-07T07:01:33;4.57;;;4.10;;
19905;SDS011;10115;50.906;4.438;2023-08-07T07:03:59;4.30;;;4.00;;
19905;SDS011;10115;50.906;4.438;2023-08-07T07:06:24;4.87;;;4.40;;
19905;SDS011;10115;50.906;4.438;2023-08-07T07:08:52;5.10;;;4.73;;
19905;SDS011;10115;50.906;4.438;2023-08-07T07:11:21;4.97;;;4.43;;
19905;SDS011;10115;50.906;4.438;2023-08-07T07:13:49;4.53;;;4.10;;
19905;SDS011;10115;50.906;4.438;2023-08-07T07:16:17;4.23;;;4.03;;
19905;SDS011;10115;50.906;4.438;2023-08-07T07:18:51;4.70;;;4.40;;
19905;SDS011;10115;50.906;4.438;2023-08-07T07:21:17;5.10;;;4.80;;
19905;SDS011;10115;50.906;4.438;2023-08-07T07:23:43;5.10;;;4.67;;
19905;SDS011;10115;50.906;4.438;2023-08-07T07:26:09;5.00;;;4.70;;
19905;SDS011;10115;50.906;4.438;2023-08-07T07:28:34;5.20;;;4.77;;
19905;SDS011;10115;50.906;4.438;2023-08-07T07:31:00;4.70;;;4.40;;
19905;SDS011;10115;50.906;4.438;2023-08-07T07:33:26;4.67;;;4.27;;
19905;SDS011;10115;50.906;4.438;2023-08-07T07:35:52;8.63;;;4.73;;
19905;SDS011;10115;50.906;4.438;2023-08-07T07:38:18;5.20;;;3.80;;
19905;SDS011;10115;50.906;4.438;2023-08-07T07:40:44;6.70;;;4.03;;
19905;SDS011;10115;50.906;4.438;2023-08-07T07:43:10;6.60;;;5.00;;
19905;SDS011;10115;50.906;4.438;2023-08-07T07:45:36;4.27;;;3.97;;
19905;SDS011;10115;50.906;4.438;2023-08-07T07:48:02;8.20;;;5.27;;
19905;SDS011;10115;50.906;4.438;2023-08-07T07:50:28;4.37;;;4.17;;
19905;SDS011;10115;50.906;4.438;2023-08-07T07:52:54;6.07;;;4.47;;
19905;SDS011;10115;50.906;4.438;2023-08-07T07:55:20;4.60;;;4.20;;
19905;SDS011;10115;50.906;4.438;2023-08-07T07:57:46;4.73;;;4.43;;
19905;SDS011;10115;50.906;4.438;2023-08-07T08:00:12;5.10;;;4.57;;
19905;SDS011;10115;50.906;4.438;2023-08-07T08:02:39;4.20;;;4.00;;
19905;SDS011;10115;50.906;4.438;2023-08-07T08:05:06;6.07;;;4.57;;
19905;SDS011;10115;50.906;4.438;2023-08-07T08:07:32;4.83;;;4.43;;
19905;SDS011;10115;50.906;4.438;2023-08-07T08:09:59;5.73;;;5.23;;
19905;SDS011;10115;50.906;4.438;2023-08-07T08:12:25;4.30;;;4.10;;
19905;SDS011;10115;50.906;4.438;2023-08-07T08:14:51;4.40;;;4.20;;
19905;SDS011;10115;50.906;4.438;2023-08-07T08:17:17;4.77;;;4.27;;
19905;SDS011;10115;50.906;4.438;2023-08-07T08:19:42;4.80;;;4.60;;
19905;SDS011;10115;50.906;4.438;2023-08-07T08:22:08;4.37;;;4.17;;
19905;SDS011;10115;50.906;4.438;2023-08-07T08:24:34;4.67;;;4.33;;
19905;SDS011;10115;50.906;4.438;2023-08-07T08:27:00;4.63;;;4.43;;
19905;SDS011;10115;50.906;4.438;2023-08-07T08:29:26;4.70;;;4.40;;
19905;SDS011;10115;50.906;4.438;2023-08-07T08:31:53;5.13;;;4.67;;
19905;SDS011;10115;50.906;4.438;2023-08-07T08:34:20;5.27;;;4.53;;
19905;SDS011;10115;50.906;4.438;2023-08-07T08:36:46;4.60;;;4.20;;
19905;SDS011;10115;50.906;4.438;2023-08-07T08:39:12;4.27;;;4.07;;
19905;SDS011;10115;50.906;4.438;2023-08-07T08:41:39;4.93;;;4.63;;
19905;SDS011;10115;50.906;4.438;2023-08-07T08:44:06;13.03;;;4.77;;
19905;SDS011;10115;50.906;4.438;2023-08-07T08:46:35;4.33;;;4.03;;
19905;SDS011;10115;50.906;4.438;2023-08-07T08:49:03;5.50;;;4.40;;
19905;SDS011;10115;50.906;4.438;2023-08-07T08:51:29;4.20;;;4.00;;
19905;SDS011;10115;50.906;4.438;2023-08-07T08:53:56;5.10;;;4.70;;
19905;SDS011;10115;50.906;4.438;2023-08-07T08:56:22;4.60;;;4.30;;
19905;SDS011;10115;50.906;4.438;2023-08-07T08:58:51;4.83;;;4.50;;
19905;SDS011;10115;50.906;4.438;2023-08-07T09:01:17;5.53;;;4.03;;
19905;SDS011;10115;50.906;4.438;2023-08-07T09:03:46;5.43;;;4.57;;
19905;SDS011;10115;50.906;4.438;2023-08-07T09:06:13;4.43;;;4.13;;
19905;SDS011;10115;50.906;4.438;2023-08-07T09:08:42;4.40;;;4.17;;
19905;SDS011;10115;50.906;4.438;2023-08-07T09:11:08;4.33;;;4.13;;
19905;SDS011;10115;50.906;4.438;2023-08-07T09:13:36;6.40;;;4.20;;
19905;SDS011;10115;50.906;4.438;2023-08-07T09:16:03;6.60;;;5.17;;
19905;SDS011;10115;50.906;4.438;2023-08-07T09:18:32;5.17;;;4.77;;
19905;SDS011;10115;50.906;4.438;2023-08-07T09:20:58;9.83;;;4.40;;
19905;SDS011;10115;50.906;4.438;2023-08-07T09:23:25;4.87;;;4.53;;
19905;SDS011;10115;50.906;4.438;2023-08-07T09:26:00;4.73;;;4.47;;
19905;SDS011;10115;50.906;4.438;2023-08-07T09:28:28;5.13;;;4.50;;
19905;SDS011;10115;50.906;4.438;2023-08-07T09:30:55;5.30;;;4.90;;
19905;SDS011;10115;50.906;4.438;2023-08-07T09:33:27;5.83;;;4.60;;
19905;SDS011;10115;50.906;4.438;2023-08-07T09:35:57;8.77;;;4.33;;
19905;SDS011;10115;50.906;4.438;2023-08-07T09:38:27;4.57;;;4.37;;
19905;SDS011;10115;50.906;4.438;2023-08-07T09:40:57;3.90;;;3.70;;
19905;SDS011;10115;50.906;4.438;2023-08-07T09:43:23;4.10;;;3.90;;
19905;SDS011;10115;50.906;4.438;2023-08-07T09:45:49;4.10;;;3.90;;
19905;SDS011;10115;50.906;4.438;2023-08-07T09:48:24;4.80;;;4.30;;
19905;SDS011;10115;50.906;4.438;2023-08-07T09:50:50;4.97;;;4.10;;
19905;SDS011;10115;50.906;4.438;2023-08-07T09:53:16;4.97;;;4.33;;
19905;SDS011;10115;50.906;4.438;2023-08-07T09:55:41;4.90;;;4.60;;
19905;SDS011;10115;50.906;4.438;2023-08-07T09:58:08;5.20;;;4.80;;
19905;SDS011;10115;50.906;4.438;2023-08-07T10:00:36;4.33;;;4.07;;
19905;SDS011;10115;50.906;4.438;2023-08-07T10:03:02;3.90;;;3.70;;
19905;SDS011;10115;50.906;4.438;2023-08-07T10:05:29;10.87;;;4.93;;
19905;SDS011;10115;50.906;4.438;2023-08-07T10:07:55;4.50;;;4.10;;
19905;SDS011;10115;50.906;4.438;2023-08-07T10:10:22;4.27;;;4.07;;
19905;SDS011;10115;50.906;4.438;2023-08-07T10:12:48;5.73;;;4.33;;
19905;SDS011;10115;50.906;4.438;2023-08-07T10:15:14;13.70;;;5.13;;
19905;SDS011;10115;50.906;4.438;2023-08-07T10:17:40;4.20;;;4.00;;
19905;SDS011;10115;50.906;4.438;2023-08-07T10:20:06;4.37;;;4.17;;
19905;SDS011;10115;50.906;4.438;2023-08-07T10:22:33;4.30;;;4.10;;
19905;SDS011;10115;50.906;4.438;2023-08-07T10:25:02;4.20;;;4.00;;
19905;SDS011;10115;50.906;4.438;2023-08-07T10:27:32;4.90;;;4.57;;
19905;SDS011;10115;50.906;4.438;2023-08-07T10:30:00;3.90;;;3.70;;
19905;SDS011;10115;50.906;4.438;2023-08-07T10:32:29;4.50;;;4.30;;
19905;SDS011;10115;50.906;4.438;2023-08-07T10:34:55;3.93;;;3.73;;
19905;SDS011;10115;50.906;4.438;2023-08-07T10:40:06;4.33;;;3.93;;
19905;SDS011;10115;50.906;4.438;2023-08-07T10:42:52;4.47;;;4.27;;
19905;SDS011;10115;50.906;4.438;2023-08-07T10:45:28;7.20;;;4.67;;
19905;SDS011;10115;50.906;4.438;2023-08-07T10:50:56;4.60;;;4.30;;
19905;SDS011;10115;50.906;4.438;2023-08-07T10:53:29;4.30;;;4.10;;
19905;SDS011;10115;50.906;4.438;2023-08-07T10:55:56;5.53;;;5.13;;
19905;SDS011;10115;50.906;4.438;2023-08-07T10:58:30;5.63;;;3.60;;
19905;SDS011;10115;50.906;4.438;2023-08-07T11:03:53;4.33;;;4.13;;
19905;SDS011;10115;50.906;4.438;2023-08-07T11:06:24;4.57;;;4.27;;
19905;SDS011;10115;50.906;4.438;2023-08-07T11:08:51;5.17;;;4.77;;
19905;SDS011;10115;50.906;4.438;2023-08-07T11:11:17;4.20;;;3.90;;
19905;SDS011;10115;50.906;4.438;2023-08-07T11:13:43;4.00;;;3.80;;
19905;SDS011;10115;50.906;4.438;2023-08-07T11:16:09;5.00;;;4.30;;
19905;SDS011;10115;50.906;4.438;2023-08-07T11:18:36;4.13;;;3.93;;
19905;SDS011;10115;50.906;4.438;2023-08-07T11:21:06;4.77;;;4.43;;
19905;SDS011;10115;50.906;4.438;2023-08-07T11:23:32;4.00;;;3.80;;
19905;SDS011;10115;50.906;4.438;2023-08-07T11:25:58;3.90;;;3.70;;
19905;SDS011;10115;50.906;4.438;2023-08-07T11:28:24;4.23;;;3.83;;
19905;SDS011;10115;50.906;4.438;2023-08-07T11:30:52;6.00;;;4.20;;
19905;SDS011;10115;50.906;4.438;2023-08-07T11:33:20;4.57;;;4.37;;
19905;SDS011;10115;50.906;4.438;2023-08-07T11:35:48;4.27;;;4.07;;
19905;SDS011;10115;50.906;4.438;2023-08-07T11:38:28;7.30;;;4.13;;
19905;SDS011;10115;50.906;4.438;2023-08-07T11:40:59;3.70;;;3.50;;
19905;SDS011;10115;50.906;4.438;2023-08-07T11:43:32;4.53;;;4.23;;
19905;SDS011;10115;50.906;4.438;2023-08-07T11:45:59;4.50;;;4.20;;
19905;SDS011;10115;50.906;4.438;2023-08-07T11:48:27;4.37;;;4.17;;
19905;SDS011;10115;50.906;4.438;2023-08-07T11:50:54;3.93;;;3.73;;
19905;SDS011;10115;50.906;4.438;2023-08-07T11:53:20;4.60;;;4.33;;
19905;SDS011;10115;50.906;4.438;2023-08-07T11:55:47;4.10;;;3.90;;
19905;SDS011;10115;50.906;4.438;2023-08-07T11:58:23;5.23;;;4.83;;
19905;SDS011;10115;50.906;4.438;2023-08-07T12:00:50;4.83;;;4.27;;
19905;SDS011;10115;50.906;4.438;2023-08-07T12:03:23;4.13;;;3.93;;
19905;SDS011;10115;50.906;4.438;2023-08-07T12:05:53;5.23;;;4.83;;
19905;SDS011;10115;50.906;4.438;2023-08-07T12:08:20;5.27;;;4.87;;
19905;SDS011;10115;50.906;4.438;2023-08-07T12:10:50;4.37;;;4.17;;
19905;SDS011;10115;50.906;4.438;2023-08-07T12:13:25;4.90;;;4.60;;
19905;SDS011;10115;50.906;4.438;2023-08-07T12:15:55;4.57;;;4.37;;
19905;SDS011;10115;50.906;4.438;2023-08-07T12:18:22;5.53;;;4.37;;
19905;SDS011;10115;50.906;4.438;2023-08-07T12:20:49;4.70;;;4.30;;
19905;SDS011;10115;50.906;4.438;2023-08-07T12:23:16;4.37;;;4.17;;
19905;SDS011;10115;50.906;4.438;2023-08-07T12:25:43;4.80;;;4.37;;
19905;SDS011;10115;50.906;4.438;2023-08-07T12:28:09;5.30;;;4.57;;
19905;SDS011;10115;50.906;4.438;2023-08-07T12:30:35;4.47;;;4.20;;
19905;SDS011;10115;50.906;4.438;2023-08-07T12:33:02;5.37;;;4.73;;
19905;SDS011;10115;50.906;4.438;2023-08-07T12:35:30;4.30;;;4.10;;
19905;SDS011;10115;50.906;4.438;2023-08-07T12:37:56;4.70;;;4.40;;
19905;SDS011;10115;50.906;4.438;2023-08-07T12:40:22;3.83;;;3.63;;
19905;SDS011;10115;50.906;4.438;2023-08-07T12:42:48;4.07;;;3.83;;
19905;SDS011;10115;50.906;4.438;2023-08-07T12:45:14;6.40;;;4.77;;
19905;SDS011;10115;50.906;4.438;2023-08-07T12:47:41;4.27;;;4.07;;
19905;SDS011;10115;50.906;4.438;2023-08-07T12:50:07;4.87;;;4.57;;
19905;SDS011;10115;50.906;4.438;2023-08-07T12:52:34;4.60;;;4.27;;
19905;SDS011;10115;50.906;4.438;2023-08-07T12:55:00;4.10;;;3.90;;
19905;SDS011;10115;50.906;4.438;2023-08-07T12:57:26;5.33;;;5.03;;
19905;SDS011;10115;50.906;4.438;2023-08-07T12:59:52;4.33;;;4.03;;
19905;SDS011;10115;50.906;4.438;2023-08-07T13:02:17;4.43;;;4.20;;
19905;SDS011;10115;50.906;4.438;2023-08-07T13:04:43;4.87;;;4.57;;
19905;SDS011;10115;50.906;4.438;2023-08-07T13:07:09;3.87;;;3.67;;
19905;SDS011;10115;50.906;4.438;2023-08-07T13:09:34;5.70;;;4.10;;
19905;SDS011;10115;50.906;4.438;2023-08-07T13:12:00;4.03;;;3.83;;
19905;SDS011;10115;50.906;4.438;2023-08-07T13:14:26;4.10;;;3.90;;
19905;SDS011;10115;50.906;4.438;2023-08-07T13:16:51;4.13;;;3.93;;
19905;SDS011;10115;50.906;4.438;2023-08-07T13:19:17;6.33;;;4.47;;
19905;SDS011;10115;50.906;4.438;2023-08-07T13:21:43;4.20;;;4.00;;
19905;SDS011;10115;50.906;4.438;2023-08-07T13:24:09;5.67;;;4.60;;
19905;SDS011;10115;50.906;4.438;2023-08-07T13:26:34;3.97;;;3.77;;
19905;SDS011;10115;50.906;4.438;2023-08-07T13:29:01;4.03;;;3.83;;
19905;SDS011;10115;50.906;4.438;2023-08-07T13:31:27;4.23;;;3.83;;
19905;SDS011;10115;50.906;4.438;2023-08-07T13:33:52;4.67;;;4.37;;
19905;SDS011;10115;50.906;4.438;2023-08-07T13:36:18;5.23;;;4.27;;
19905;SDS011;10115;50.906;4.438;2023-08-07T13:38:44;4.27;;;3.73;;
19905;SDS011;10115;50.906;4.438;2023-08-07T13:41:09;4.70;;;4.40;;
19905;SDS011;10115;50.906;4.438;2023-08-07T13:43:36;4.33;;;4.13;;
19905;SDS011;10115;50.906;4.438;2023-08-07T13:46:02;4.10;;;3.90;;
19905;SDS011;10115;50.906;4.438;2023-08-07T13:48:28;3.63;;;3.53;;
19905;SDS011;10115;50.906;4.438;2023-08-07T13:50:54;4.27;;;3.87;;
19905;SDS011;10115;50.906;4.438;2023-08-07T13:53:19;3.57;;;3.47;;
19905;SDS011;10115;50.906;4.438;2023-08-07T13:55:45;3.90;;;3.73;;
19905;SDS011;10115;50.906;4.438;2023-08-07T13:58:12;3.47;;;3.37;;
19905;SDS011;10115;50.906;4.438;2023-08-07T14:00:41;3.67;;;3.53;;
19905;SDS011;10115;50.906;4.438;2023-08-07T14:03:08;3.97;;;3.77;;
19905;SDS011;10115;50.906;4.438;2023-08-07T14:05:34;3.53;;;3.33;;
19905;SDS011;10115;50.906;4.438;2023-08-07T14:08:00;4.53;;;3.57;;
19905;SDS011;10115;50.906;4.438;2023-08-07T14:10:27;3.97;;;3.77;;
19905;SDS011;10115;50.906;4.438;2023-08-07T14:12:52;4.07;;;3.87;;
19905;SDS011;10115;50.906;4.438;2023-08-07T14:15:18;3.73;;;3.57;;
19905;SDS011;10115;50.906;4.438;2023-08-07T14:17:44;4.57;;;3.67;;
19905;SDS011;10115;50.906;4.438;2023-08-07T14:20:09;4.07;;;3.60;;
19905;SDS011;10115;50.906;4.438;2023-08-07T14:22:36;3.57;;;3.37;;
19905;SDS011;10115;50.906;4.438;2023-08-07T14:25:03;3.63;;;3.37;;
19905;SDS011;10115;50.906;4.438;2023-08-07T14:27:29;3.63;;;3.53;;
19905;SDS011;10115;50.906;4.438;2023-08-07T14:29:55;4.30;;;3.63;;
19905;SDS011;10115;50.906;4.438;2023-08-07T14:32:21;3.83;;;3.63;;
19905;SDS011;10115;50.906;4.438;2023-08-07T14:34:47;3.37;;;3.23;;
19905;SDS011;10115;50.906;4.438;2023-08-07T14:37:14;9.80;;;3.73;;
19905;SDS011;10115;50.906;4.438;2023-08-07T14:39:40;4.33;;;3.87;;
19905;SDS011;10115;50.906;4.438;2023-08-07T14:42:05;4.40;;;4.20;;
19905;SDS011;10115;50.906;4.438;2023-08-07T14:44:32;3.57;;;3.37;;
19905;SDS011;10115;50.906;4.438;2023-08-07T14:46:58;4.07;;;3.73;;
19905;SDS011;10115;50.906;4.438;2023-08-07T14:49:24;3.60;;;3.30;;
19905;SDS011;10115;50.906;4.438;2023-08-07T14:51:49;2.93;;;2.83;;
19905;SDS011;10115;50.906;4.438;2023-08-07T14:54:15;4.10;;;3.90;;
19905;SDS011;10115;50.906;4.438;2023-08-07T14:56:41;3.13;;;3.03;;
19905;SDS011;10115;50.906;4.438;2023-08-07T14:59:06;3.77;;;3.67;;
19905;SDS011;10115;50.906;4.438;2023-08-07T15:01:32;3.80;;;3.60;;
19905;SDS011;10115;50.906;4.438;2023-08-07T15:03:57;3.73;;;3.63;;